Time;durP1;ratioP1;P1;durP2;ratioP2;P2;SDS_P1;SDS_P2;PMS_P1;PMS_P2;Temp;Humidity;BMP_temperature;BMP_pressure;BME280_temperature;BME280_humidity;BME280_pressure;Samples;Min_cycle;Max_cycle;Signal;HPM_P1;HPM_P2
2022/06/25 00:02:30;;;;;;;7.53;6.83;;;18.80;99.90;;;;;;8383778;28;20618;-66
2022/06/25 00:06:31;;;;;;;8.00;6.10;;;18.70;99.90;;;;;;8362412;28;20204;-67
2022/06/25 00:10:32;;;;;;;9.00;6.20;;;18.70;99.90;;;;;;8370548;28;20181;-66
2022/06/25 00:14:33;;;;;;;7.33;6.63;;;18.60;99.90;;;;;;8375277;28;20449;-63
2022/06/25 00:18:33;;;;;;;6.67;6.07;;;18.60;99.90;;;;;;8377388;28;20182;-64
2022/06/25 00:22:34;;;;;;;7.00;6.40;;;18.50;99.90;;;;;;8370566;28;20207;-66
2022/06/25 00:26:35;;;;;;;8.50;7.43;;;18.50;99.90;;;;;;8372242;28;20181;-65
2022/06/25 00:30:37;;;;;;;8.07;7.27;;;18.40;99.90;;;;;;8386198;28;20237;-66
2022/06/25 00:34:38;;;;;;;7.47;6.87;;;18.40;99.90;;;;;;8375743;28;20506;-65
2022/06/25 00:38:39;;;;;;;8.30;7.33;;;18.40;99.90;;;;;;8385139;28;20423;-67
2022/06/25 00:42:45;;;;;;;8.40;7.60;;;18.30;99.90;;;;;;8379408;28;20212;-67
2022/06/25 00:46:49;;;;;;;8.30;7.53;;;18.30;99.90;;;;;;8372628;28;20193;-66
2022/06/25 00:50:51;;;;;;;7.73;7.03;;;18.20;99.90;;;;;;8370666;28;20199;-66
2022/06/25 00:54:53;;;;;;;7.20;6.60;;;18.20;99.90;;;;;;8376517;28;20207;-67
2022/06/25 00:58:58;;;;;;;8.20;6.57;;;18.20;99.90;;;;;;8379171;28;20182;-66
2022/06/25 01:02:59;;;;;;;6.73;6.13;;;18.30;99.90;;;;;;8377751;28;20213;-68
2022/06/25 01:07:00;;;;;;;9.30;7.03;;;18.30;99.90;;;;;;8376919;28;20180;-69
2022/06/25 01:11:02;;;;;;;9.37;8.43;;;18.40;99.90;;;;;;8370882;28;20182;-65
2022/06/25 01:15:23;;;;;;;8.53;7.73;;;18.40;99.90;;;;;;8373038;28;20173;-67
2022/06/25 01:19:24;;;;;;;9.77;8.10;;;18.20;99.90;;;;;;8380475;28;20205;-64
2022/06/25 01:23:25;;;;;;;7.67;6.97;;;18.10;99.90;;;;;;8374916;28;20206;-66
2022/06/25 01:27:26;;;;;;;8.73;6.87;;;18.00;99.90;;;;;;8373085;28;20200;-68
2022/06/25 01:31:27;;;;;;;6.93;6.33;;;17.90;99.90;;;;;;8368733;28;20213;-67
2022/06/25 01:35:27;;;;;;;8.27;6.93;;;18.00;99.90;;;;;;8371944;28;20197;-67
2022/06/25 01:39:28;;;;;;;9.23;7.57;;;18.00;99.90;;;;;;8373425;28;20209;-68
2022/06/25 01:43:29;;;;;;;7.23;6.63;;;18.10;99.90;;;;;;8373427;28;20261;-67
2022/06/25 01:47:30;;;;;;;8.00;7.37;;;18.10;99.90;;;;;;8370768;28;20182;-67
2022/06/25 01:51:30;;;;;;;7.03;6.43;;;18.10;99.90;;;;;;8375486;28;20177;-67
2022/06/25 01:55:32;;;;;;;7.20;6.27;;;18.10;99.90;;;;;;8373776;28;20243;-67
2022/06/25 01:59:33;;;;;;;6.93;6.33;;;18.10;99.90;;;;;;8370586;28;20213;-67
2022/06/25 02:03:34;;;;;;;6.87;6.27;;;18.10;99.90;;;;;;8371259;28;20209;-65
2022/06/25 02:07:35;;;;;;;6.43;5.87;;;18.10;99.90;;;;;;8369548;28;20253;-66
2022/06/25 02:11:36;;;;;;;7.13;6.03;;;18.10;99.90;;;;;;8371006;28;20190;-68
2022/06/25 02:15:37;;;;;;;6.20;5.70;;;18.10;99.90;;;;;;8377073;28;20181;-67
2022/06/25 02:19:38;;;;;;;7.23;6.53;;;18.10;99.90;;;;;;8367320;28;20190;-67
2022/06/25 02:23:38;;;;;;;6.60;6.00;;;18.20;99.90;;;;;;8370390;28;20265;-70
2022/06/25 02:27:39;;;;;;;6.07;5.53;;;18.20;99.90;;;;;;8373484;28;20227;-64
2022/06/25 02:31:40;;;;;;;5.97;5.47;;;18.20;99.90;;;;;;8375276;28;20178;-65
2022/06/25 02:35:42;;;;;;;5.90;5.40;;;18.20;99.90;;;;;;8368834;28;20225;-65
2022/06/25 02:39:43;;;;;;;5.20;4.80;;;18.20;99.90;;;;;;8376452;28;20196;-66
2022/06/25 02:43:44;;;;;;;5.33;4.93;;;18.20;99.90;;;;;;8372152;28;20181;-67
2022/06/25 02:47:45;;;;;;;5.47;5.00;;;18.10;99.90;;;;;;8371260;28;20238;-67
2022/06/25 02:51:45;;;;;;;6.23;5.63;;;18.10;99.90;;;;;;8368306;28;20288;-67
2022/06/25 03:00:06;;;;;;;6.13;5.63;;;18.10;99.90;;;;;;8370181;28;20288;-67
2022/06/25 03:04:07;;;;;;;6.90;6.20;;;18.10;99.90;;;;;;8368909;28;20221;-70
2022/06/25 03:08:08;;;;;;;8.13;6.40;;;18.10;99.90;;;;;;8374628;28;20188;-69
2022/06/25 03:12:09;;;;;;;5.70;5.23;;;18.20;99.90;;;;;;8370014;28;20230;-66
2022/06/25 03:16:10;;;;;;;6.40;5.80;;;18.20;99.90;;;;;;8365390;28;20194;-68
2022/06/25 03:20:11;;;;;;;7.10;6.40;;;18.20;99.90;;;;;;8369679;28;20201;-68
2022/06/25 03:24:12;;;;;;;8.23;7.00;;;18.30;99.90;;;;;;8370572;28;20263;-70
2022/06/25 03:28:13;;;;;;;10.27;8.53;;;18.30;99.90;;;;;;8370438;28;20522;-67
2022/06/25 03:32:14;;;;;;;8.87;7.97;;;18.30;99.90;;;;;;8369351;28;20242;-68
2022/06/25 03:36:15;;;;;;;6.90;6.20;;;18.40;99.90;;;;;;8365553;28;20263;-67
2022/06/25 03:40:17;;;;;;;6.73;6.13;;;18.50;99.50;;;;;;8366317;28;20283;-67
2022/06/25 03:44:17;;;;;;;6.30;5.70;;;18.70;1.00;;;;;;8363502;28;20242;-68
2022/06/25 03:48:18;;;;;;;5.97;5.37;;;18.70;99.90;;;;;;8370496;28;20225;-67
2022/06/25 03:52:19;;;;;;;5.87;5.33;;;18.90;1.00;;;;;;8377120;28;20420;-68
2022/06/25 03:56:20;;;;;;;6.43;5.93;;;19.00;1.00;;;;;;8366182;28;20189;-66
2022/06/25 04:00:21;;;;;;;5.47;5.07;;;19.20;77.90;;;;;;8364147;28;20213;-68
2022/06/25 04:04:22;;;;;;;6.40;5.80;;;19.60;99.90;;;;;;8370589;28;20197;-70
2022/06/25 04:08:22;;;;;;;7.30;6.27;;;19.80;45.40;;;;;;8376063;28;20257;-71
2022/06/25 04:12:23;;;;;;;8.80;7.90;;;19.80;99.90;;;;;;8372616;28;20261;-67
2022/06/25 04:16:24;;;;;;;14.30;9.77;;;19.80;1.00;;;;;;8366033;28;20599;-71
2022/06/25 04:20:25;;;;;;;9.10;8.17;;;19.90;99.90;;;;;;8370896;28;20202;-67
2022/06/25 04:24:26;;;;;;;9.70;7.33;;;20.00;1.00;;;;;;8376861;28;20178;-68
2022/06/25 04:32:46;;;;;;;7.27;6.30;;;20.60;99.90;;;;;;8370228;28;20216;-67
2022/06/25 04:36:47;;;;;;;5.97;5.33;;;21.00;1.00;;;;;;8383049;28;20189;-68
2022/06/25 04:40:48;;;;;;;5.77;5.17;;;21.30;1.00;;;;;;8370516;28;20194;-67
2022/06/25 04:44:49;;;;;;;5.63;5.13;;;21.40;99.90;;;;;;8371558;28;20236;-71
2022/06/25 04:48:49;;;;;;;5.27;4.57;;;21.30;99.90;;;;;;8370436;28;20204;-67
2022/06/25 04:52:50;;;;;;;5.03;4.60;;;21.30;99.90;;;;;;8377151;28;20182;-70
2022/06/25 04:56:51;;;;;;;4.77;4.37;;;21.30;99.90;;;;;;8373813;28;20413;-67
2022/06/25 05:00:52;;;;;;;4.43;4.00;;;21.20;99.90;;;;;;8370553;28;20266;-67
2022/06/25 05:04:52;;;;;;;4.73;4.33;;;21.20;99.90;;;;;;8373989;28;20327;-66
2022/06/25 05:08:53;;;;;;;5.17;4.67;;;21.10;99.90;;;;;;8374702;28;20237;-68
2022/06/25 05:13:12;;;;;;;4.90;4.50;;;21.00;99.90;;;;;;8369573;28;20241;-67
2022/06/25 05:17:13;;;;;;;4.30;4.00;;;20.90;99.90;;;;;;8372714;28;20205;-69
2022/06/25 05:21:14;;;;;;;7.97;7.17;;;20.90;99.90;;;;;;8372857;28;20265;-69
2022/06/25 05:25:15;;;;;;;7.03;6.23;;;20.70;99.90;;;;;;8366633;28;20173;-69
2022/06/25 05:29:15;;;;;;;7.77;6.70;;;20.50;99.90;;;;;;8367825;28;20288;-68
2022/06/25 05:33:16;;;;;;;7.53;6.80;;;20.40;99.90;;;;;;8367786;28;20189;-69
2022/06/25 05:37:17;;;;;;;6.70;6.10;;;20.30;99.90;;;;;;8368564;28;20248;-68
2022/06/25 05:41:18;;;;;;;6.17;5.60;;;20.30;1.00;;;;;;8370010;28;20206;-69
2022/06/25 05:45:19;;;;;;;7.10;6.40;;;20.40;1.00;;;;;;8372344;28;20278;-71
2022/06/25 05:49:19;;;;;;;8.07;7.27;;;20.70;1.00;;;;;;8363769;28;20237;-66
2022/06/25 05:53:20;;;;;;;7.87;6.50;;;20.90;99.90;;;;;;8374544;28;20194;-67
2022/06/25 05:57:21;;;;;;;9.03;6.70;;;21.30;99.90;;;;;;8367724;28;20209;-65
2022/06/25 06:01:22;;;;;;;6.50;5.60;;;21.70;1.00;;;;;;8371195;28;20298;-70
2022/06/25 06:05:22;;;;;;;6.33;4.90;;;22.30;99.90;;;;;;8376178;28;20230;-65
2022/06/25 06:09:24;;;;;;;5.73;5.03;;;22.90;1.00;;;;;;8368274;28;20174;-70
2022/06/25 06:13:24;;;;;;;5.47;4.37;;;23.50;99.90;;;;;;8369303;28;20223;-70
2022/06/25 06:17:25;;;;;;;5.67;4.07;;;23.90;99.90;;;;;;8371536;28;20173;-67
2022/06/25 06:21:26;;;;;;;4.30;3.90;;;24.20;99.90;;;;;;8366488;28;20205;-70
2022/06/25 06:25:27;;;;;;;5.87;3.93;;;24.40;99.90;;;;;;8369956;28;20274;-66
2022/06/25 06:29:29;;;;;;;4.97;3.40;;;24.50;99.90;;;;;;8367377;28;20193;-67
2022/06/25 06:33:29;;;;;;;4.63;3.70;;;24.50;99.90;;;;;;8367309;28;20185;-70
2022/06/25 06:37:30;;;;;;;4.60;3.50;;;24.50;99.90;;;;;;8371403;28;20239;-68
2022/06/25 06:41:31;;;;;;;4.67;4.13;;;24.20;99.90;;;;;;8360200;28;20282;-69
2022/06/25 06:45:32;;;;;;;5.37;3.90;;;24.30;99.90;;;;;;8363569;28;20268;-71
2022/06/25 06:49:32;;;;;;;4.10;3.63;;;24.20;99.90;;;;;;8369072;28;20177;-67
2022/06/25 06:53:34;;;;;;;5.27;3.40;;;24.20;99.90;;;;;;8364460;28;20182;-67
2022/06/25 06:57:35;;;;;;;9.10;3.50;;;24.30;99.90;;;;;;8368686;28;20189;-68
2022/06/25 07:01:36;;;;;;;4.27;3.23;;;24.40;99.90;;;;;;8373383;28;20255;-68
2022/06/25 07:05:37;;;;;;;3.53;3.23;;;24.50;99.90;;;;;;8373193;28;20250;-67
2022/06/25 07:09:38;;;;;;;5.13;3.40;;;24.50;99.90;;;;;;8370139;28;20189;-67
2022/06/25 07:13:38;;;;;;;3.60;3.30;;;24.60;99.90;;;;;;8366229;28;20181;-66
2022/06/25 07:17:39;;;;;;;5.43;3.33;;;24.70;99.90;;;;;;8365235;28;20253;-71
2022/06/25 07:21:40;;;;;;;4.10;3.70;;;24.80;99.90;;;;;;8366720;28;20224;-70
2022/06/25 07:25:41;;;;;;;4.60;3.57;;;24.90;99.90;;;;;;8373615;28;20185;-67
2022/06/25 07:29:42;;;;;;;4.23;3.43;;;25.00;99.90;;;;;;8368719;28;20213;-70
2022/06/25 07:33:43;;;;;;;4.33;3.90;;;25.00;99.90;;;;;;8369004;28;20197;-71
2022/06/25 07:37:44;;;;;;;4.90;4.00;;;25.40;99.90;;;;;;8372036;28;20185;-72
2022/06/25 07:41:45;;;;;;;4.60;4.20;;;25.60;99.90;;;;;;8366320;28;20205;-68
2022/06/25 07:45:46;;;;;;;4.30;3.90;;;25.70;99.90;;;;;;8369166;28;20181;-70
2022/06/25 07:54:06;;;;;;;5.70;4.28;;;25.70;99.90;;;;;;8374014;28;20266;-65
2022/06/25 07:58:06;;;;;;;7.67;3.97;;;25.80;99.90;;;;;;8380690;28;20209;-68
2022/06/25 08:02:07;;;;;;;3.90;3.50;;;25.80;99.90;;;;;;8380282;28;20222;-69
2022/06/25 08:06:08;;;;;;;5.68;3.75;;;25.90;99.90;;;;;;8376325;28;20253;-68
2022/06/25 08:10:09;;;;;;;4.45;4.03;;;26.20;99.90;;;;;;8371190;28;20178;-65
2022/06/25 08:14:10;;;;;;;6.47;4.20;;;26.40;99.90;;;;;;8373423;28;20176;-68
2022/06/25 08:18:10;;;;;;;5.53;3.80;;;26.70;99.90;;;;;;8372420;28;20256;-64
2022/06/25 08:22:11;;;;;;;4.22;3.55;;;26.90;95.80;;;;;;8374068;28;20240;-63
2022/06/25 08:26:12;;;;;;;5.07;4.00;;;27.00;80.70;;;;;;8372086;28;20177;-63
2022/06/25 08:30:13;;;;;;;3.97;3.63;;;27.20;93.40;;;;;;8368274;28;20202;-61
2022/06/25 08:34:14;;;;;;;7.38;4.28;;;27.20;79.60;;;;;;8368731;28;20173;-60
2022/06/25 08:38:16;;;;;;;5.50;4.00;;;27.30;87.10;;;;;;8376354;28;20212;-66
2022/06/25 08:42:17;;;;;;;4.10;3.70;;;27.60;62.50;;;;;;8374286;28;20346;-66
2022/06/25 08:46:19;;;;;;;5.80;3.55;;;27.60;42.60;;;;;;8371022;28;20178;-67
2022/06/25 08:50:21;;;;;;;9.60;4.60;;;27.90;27.00;;;;;;8373110;28;20193;-67
2022/06/25 08:54:23;;;;;;;6.90;3.90;;;28.20;29.40;;;;;;8371836;28;20187;-65
2022/06/25 08:58:24;;;;;;;4.95;4.07;;;28.00;6.60;;;;;;8377423;28;20187;-66
2022/06/25 09:02:25;;;;;;;5.72;4.15;;;27.80;5.80;;;;;;8374151;28;20206;-66
2022/06/25 09:06:26;;;;;;;7.53;4.38;;;28.10;9.90;;;;;;8378795;28;20299;-67
2022/06/25 09:10:28;;;;;;;5.05;4.05;;;27.90;7.30;;;;;;8375188;28;20566;-70
2022/06/25 09:14:31;;;;;;;4.75;4.35;;;27.60;10.30;;;;;;8376710;28;20184;-69
2022/06/25 09:18:35;;;;;;;4.80;3.92;;;27.60;22.20;;;;;;8374852;28;20197;-69
2022/06/25 09:22:35;;;;;;;5.72;4.53;;;27.60;14.70;;;;;;8374178;28;20208;-70
2022/06/25 09:26:50;;;;;;;4.97;4.13;;;27.70;15.40;;;;;;8371342;28;20197;-70
2022/06/25 09:30:51;;;;;;;5.78;4.18;;;28.20;17.30;;;;;;8374762;28;20205;-70
2022/06/25 09:34:51;;;;;;;7.28;4.10;;;28.20;1.00;;;;;;8374537;28;20498;-72
2022/06/25 09:38:52;;;;;;;7.90;4.32;;;28.40;1.00;;;;;;8370794;28;20231;-67
2022/06/25 09:42:53;;;;;;;5.18;4.35;;;28.50;1.00;;;;;;8374058;28;20211;-69
2022/06/25 09:46:58;;;;;;;5.32;3.60;;;28.80;1.00;;;;;;8371601;28;20292;-69
2022/06/25 09:51:10;;;;;;;5.38;3.42;;;29.20;1.00;;;;;;8368654;28;20187;-70
2022/06/25 09:55:11;;;;;;;4.70;3.60;;;29.40;1.00;;;;;;8372183;28;20250;-73
2022/06/25 09:59:12;;;;;;;3.08;2.78;;;29.50;1.00;;;;;;8387851;28;20177;-66
2022/06/25 10:03:14;;;;;;;3.90;3.60;;;29.70;1.00;;;;;;8372526;28;20269;-70
2022/06/25 10:07:15;;;;;;;6.25;4.07;;;29.50;1.00;;;;;;8381280;28;20208;-67
2022/06/25 10:11:25;;;;;;;4.82;4.25;;;29.00;1.00;;;;;;8373468;28;20265;-71
2022/06/25 10:15:27;;;;;;;6.72;3.67;;;28.60;1.00;;;;;;8369313;28;20182;-69
2022/06/25 10:19:31;;;;;;;5.90;3.83;;;28.70;1.00;;;;;;8368857;28;20205;-67
2022/06/25 10:23:32;;;;;;;4.15;3.75;;;28.90;1.00;;;;;;8367955;28;20208;-70
2022/06/25 10:27:40;;;;;;;5.03;3.63;;;29.20;1.00;;;;;;8369877;28;20194;-70
2022/06/25 10:31:41;;;;;;;4.70;3.70;;;29.30;1.00;;;;;;8367474;28;20240;-70
2022/06/25 10:35:44;;;;;;;3.22;3.03;;;29.40;1.00;;;;;;8379992;28;20182;-67
2022/06/25 10:39:49;;;;;;;3.38;3.08;;;29.60;1.00;;;;;;8375545;28;20227;-68
2022/06/25 10:43:53;;;;;;;3.55;3.25;;;29.20;1.00;;;;;;8373327;28;20244;-69
2022/06/25 10:47:58;;;;;;;3.03;2.83;;;28.90;1.00;;;;;;8375258;28;20177;-69
2022/06/25 10:52:05;;;;;;;3.08;2.40;;;29.10;1.00;;;;;;8372572;28;20212;-71
2022/06/25 10:56:14;;;;;;;4.57;3.40;;;29.70;1.00;;;;;;8377192;28;20181;-71
2022/06/25 11:00:15;;;;;;;3.97;3.65;;;30.50;1.00;;;;;;8375185;28;20189;-69
2022/06/25 11:04:16;;;;;;;3.67;3.35;;;31.30;1.00;;;;;;8371379;28;20245;-70
2022/06/25 11:08:16;;;;;;;2.45;2.25;;;31.70;1.00;;;;;;8370729;28;20186;-68
2022/06/25 11:12:18;;;;;;;5.10;4.60;;;32.00;1.00;;;;;;8371988;28;20464;-71
2022/06/25 11:16:19;;;;;;;2.78;2.15;;;32.10;1.00;;;;;;8369727;28;20197;-69
2022/06/25 11:20:21;;;;;;;3.53;3.22;;;32.50;1.00;;;;;;8375049;28;20188;-70
2022/06/25 11:24:24;;;;;;;2.00;1.75;;;32.40;1.00;;;;;;8374962;28;20184;-68
2022/06/25 11:32:46;;;;;;;2.53;2.33;;;32.00;1.00;;;;;;8384620;28;20242;-69
2022/06/25 11:37:02;;;;;;;4.18;2.17;;;31.90;1.00;;;;;;8375932;28;20186;-70
2022/06/25 11:41:03;;;;;;;2.15;1.80;;;32.00;1.00;;;;;;8380798;28;20221;-70
2022/06/25 11:45:05;;;;;;;2.65;1.45;;;32.10;1.00;;;;;;8384861;28;20272;-66
2022/06/25 11:49:06;;;;;;;1.80;1.40;;;32.30;1.00;;;;;;8384848;28;20204;-68
2022/06/25 11:53:06;;;;;;;2.05;1.60;;;32.20;1.00;;;;;;8385121;28;20216;-67
2022/06/25 11:57:11;;;;;;;3.35;1.83;;;31.90;1.00;;;;;;8383646;28;20181;-70
2022/06/25 12:01:12;;;;;;;2.05;1.85;;;32.20;1.00;;;;;;8385470;28;20634;-69
2022/06/25 12:05:13;;;;;;;2.28;2.08;;;32.00;1.00;;;;;;8382096;28;20592;-68
2022/06/25 12:09:15;;;;;;;1.73;1.60;;;32.00;1.00;;;;;;8384937;28;20235;-66
2022/06/25 12:13:17;;;;;;;1.83;1.67;;;32.20;1.00;;;;;;8391614;28;20207;-68
2022/06/25 12:17:18;;;;;;;3.28;1.92;;;31.90;1.00;;;;;;8385796;28;20181;-67
2022/06/25 12:21:20;;;;;;;2.58;1.90;;;31.40;1.00;;;;;;8381693;28;20207;-70
2022/06/25 12:25:31;;;;;;;1.70;1.60;;;31.10;1.00;;;;;;8384077;28;20198;-65
2022/06/25 12:29:36;;;;;;;2.25;1.50;;;31.50;1.00;;;;;;8382333;28;20338;-67
2022/06/25 12:33:37;;;;;;;3.55;1.40;;;31.60;1.00;;;;;;8384549;28;20182;-69
2022/06/25 12:37:38;;;;;;;1.70;1.52;;;31.30;1.00;;;;;;8386367;28;20213;-67
2022/06/25 12:41:46;;;;;;;2.15;1.55;;;31.20;1.00;;;;;;8379132;28;20201;-66
2022/06/25 12:45:48;;;;;;;2.25;1.35;;;31.10;1.00;;;;;;8372686;28;20182;-68
2022/06/25 12:49:51;;;;;;;1.65;1.45;;;31.00;1.00;;;;;;8370934;28;20193;-66
2022/06/25 12:53:56;;;;;;;1.80;1.30;;;30.90;1.00;;;;;;8373863;28;20200;-65
2022/06/25 12:58:05;;;;;;;1.77;1.02;;;30.90;1.00;;;;;;8370105;28;20182;-69
2022/06/25 13:02:06;;;;;;;3.15;1.40;;;30.60;1.00;;;;;;8374971;28;20237;-66
2022/06/25 13:06:06;;;;;;;3.30;1.10;;;30.40;1.00;;;;;;8376430;28;20197;-68
2022/06/25 13:10:08;;;;;;;2.67;0.90;;;30.40;1.00;;;;;;8373908;28;20205;-66
2022/06/25 13:14:09;;;;;;;1.20;1.00;;;30.60;1.00;;;;;;8374462;28;20184;-69
2022/06/25 13:18:10;;;;;;;1.52;0.98;;;30.80;1.00;;;;;;8374425;28;20182;-68
2022/06/25 13:22:10;;;;;;;1.33;0.90;;;31.00;1.00;;;;;;8379189;28;20287;-64
2022/06/25 13:26:11;;;;;;;1.00;0.85;;;31.30;1.00;;;;;;8375214;28;20181;-65
2022/06/25 13:30:12;;;;;;;1.60;0.90;;;31.40;1.00;;;;;;8372655;28;20197;-68
2022/06/25 13:34:13;;;;;;;0.77;0.60;;;31.60;1.00;;;;;;8375621;28;20192;-71
2022/06/25 13:38:14;;;;;;;2.63;0.70;;;32.00;1.00;;;;;;8372698;28;20178;-67
2022/06/25 13:42:15;;;;;;;1.05;0.85;;;32.30;1.00;;;;;;8371334;28;20220;-67
2022/06/25 13:46:15;;;;;;;1.50;0.80;;;32.50;1.00;;;;;;8381509;28;20181;-65
2022/06/25 13:50:16;;;;;;;1.33;0.55;;;32.70;1.00;;;;;;8375313;28;20221;-69
2022/06/25 13:54:17;;;;;;;1.52;0.70;;;33.10;1.00;;;;;;8375310;28;20169;-70
2022/06/25 13:58:18;;;;;;;0.95;0.80;;;33.20;1.00;;;;;;8381142;28;20255;-67
2022/06/25 14:02:19;;;;;;;0.73;0.60;;;33.00;1.00;;;;;;8372963;28;20276;-67
2022/06/25 14:06:20;;;;;;;1.38;0.80;;;32.80;1.00;;;;;;8369081;28;20289;-66
2022/06/25 14:10:21;;;;;;;1.42;1.00;;;32.60;1.00;;;;;;8368843;28;20236;-64
2022/06/25 14:14:22;;;;;;;1.65;0.77;;;32.10;1.00;;;;;;8369363;28;20401;-66
2022/06/25 14:18:22;;;;;;;2.05;1.00;;;32.00;1.00;;;;;;8368661;28;20188;-66
2022/06/25 14:22:23;;;;;;;0.70;0.70;;;31.70;1.00;;;;;;8377366;28;20209;-68
2022/06/25 14:26:24;;;;;;;1.25;0.80;;;31.70;1.00;;;;;;8369877;28;20182;-70
2022/06/25 14:30:26;;;;;;;1.00;0.77;;;32.00;1.00;;;;;;8374851;28;20194;-68
2022/06/25 14:34:27;;;;;;;1.00;0.90;;;32.50;1.00;;;;;;8375378;28;20201;-66
2022/06/25 14:42:47;;;;;;;1.65;0.80;;;32.80;1.00;;;;;;8372865;28;20312;-67
2022/06/25 14:46:48;;;;;;;1.40;0.93;;;33.30;1.00;;;;;;8359606;28;20209;-66
2022/06/25 14:50:49;;;;;;;0.80;0.80;;;33.50;1.00;;;;;;8369425;28;20264;-66
2022/06/25 14:54:49;;;;;;;1.65;0.77;;;33.60;1.00;;;;;;8373825;28;20181;-67
2022/06/25 14:58:50;;;;;;;1.70;0.70;;;33.60;1.00;;;;;;8368457;28;20204;-66
2022/06/25 15:02:51;;;;;;;3.05;1.27;;;33.60;1.00;;;;;;8370176;28;20302;-70
2022/06/25 15:06:52;;;;;;;3.63;1.40;;;31.80;1.00;;;;;;8368969;28;20273;-69
2022/06/25 15:10:53;;;;;;;2.75;1.42;;;30.30;1.00;;;;;;8361811;28;20223;-65
2022/06/25 15:14:54;;;;;;;6.07;1.77;;;28.90;1.00;;;;;;8364659;28;20282;-69
2022/06/25 15:18:55;;;;;;;7.60;2.20;;;28.20;43.60;;;;;;8366502;28;20180;-64
2022/06/25 15:22:56;;;;;;;5.25;2.13;;;27.60;99.90;;;;;;8370574;28;20209;-71
2022/06/25 15:26:56;;;;;;;3.90;1.90;;;27.00;99.90;;;;;;8368271;28;20189;-67
2022/06/25 15:30:57;;;;;;;5.45;2.40;;;26.40;99.90;;;;;;8365661;28;20267;-66
2022/06/25 15:34:58;;;;;;;4.03;1.83;;;25.90;99.90;;;;;;8376049;28;20214;-68
2022/06/25 15:38:59;;;;;;;2.23;1.77;;;25.80;99.90;;;;;;8374803;28;20233;-71
2022/06/25 15:43:01;;;;;;;3.27;2.30;;;25.80;99.90;;;;;;8367148;28;20229;-70
2022/06/25 15:47:03;;;;;;;7.85;3.28;;;25.80;99.90;;;;;;8377198;28;20173;-66
2022/06/25 15:51:04;;;;;;;3.70;2.20;;;25.90;1.00;;;;;;8364818;28;20271;-71
2022/06/25 15:55:04;;;;;;;5.17;2.73;;;25.40;1.00;;;;;;8372131;28;20186;-70
2022/06/25 16:03:24;;;;;;;9.20;5.57;;;25.30;1.00;;;;;;8369336;28;20548;-66
2022/06/25 16:07:25;;;;;;;10.13;7.13;;;25.40;1.00;;;;;;8379011;28;20178;-65
2022/06/25 16:11:32;;;;;;;9.27;7.03;;;25.40;1.00;;;;;;8365677;28;20178;-66
2022/06/25 16:15:33;;;;;;;7.67;4.93;;;25.50;72.50;;;;;;8381174;28;20186;-65
2022/06/25 16:19:33;;;;;;;8.07;4.60;;;25.50;1.00;;;;;;8375492;28;20185;-66
2022/06/25 16:23:34;;;;;;;6.30;4.33;;;25.40;1.00;;;;;;8376514;28;20205;-66
2022/06/25 16:27:36;;;;;;;5.40;3.93;;;25.30;99.90;;;;;;8377481;28;20281;-66
2022/06/25 16:31:38;;;;;;;4.70;3.90;;;25.20;99.90;;;;;;8372824;28;20182;-67
2022/06/25 16:35:39;;;;;;;11.83;8.00;;;25.00;99.90;;;;;;8383109;28;20219;-68
2022/06/25 16:39:40;;;;;;;8.83;7.10;;;24.90;99.90;;;;;;8383753;28;20186;-67
2022/06/25 16:48:00;;;;;;;5.60;3.67;;;24.70;1.00;;;;;;8378473;28;20246;-66
2022/06/25 16:52:03;;;;;;;4.30;2.93;;;24.60;1.00;;;;;;8368189;28;20186;-67
2022/06/25 16:56:04;;;;;;;4.67;2.63;;;24.50;1.00;;;;;;8372556;28;20178;-66
2022/06/25 17:00:06;;;;;;;3.47;2.83;;;24.30;99.90;;;;;;8370047;28;20173;-68
2022/06/25 17:04:07;;;;;;;3.23;2.87;;;24.20;99.90;;;;;;8372006;28;20206;-67
2022/06/25 17:08:08;;;;;;;3.63;2.77;;;24.10;1.00;;;;;;8377783;28;20170;-67
2022/06/25 17:12:09;;;;;;;3.40;2.97;;;24.00;1.00;;;;;;8377295;28;20499;-66
2022/06/25 17:16:09;;;;;;;3.00;2.80;;;23.90;1.00;;;;;;8375239;28;20192;-66
2022/06/25 17:20:10;;;;;;;3.70;2.93;;;23.80;99.90;;;;;;8378421;28;20240;-68
2022/06/25 17:24:11;;;;;;;4.17;3.17;;;23.70;1.00;;;;;;8376370;28;20586;-70
2022/06/25 17:28:12;;;;;;;3.23;2.93;;;23.60;1.00;;;;;;8371825;28;20197;-68
2022/06/25 17:32:13;;;;;;;4.43;3.20;;;23.60;99.90;;;;;;8370228;28;20178;-67
2022/06/25 17:36:14;;;;;;;3.47;2.97;;;23.40;99.90;;;;;;8374804;28;20190;-68
2022/06/25 17:40:15;;;;;;;3.30;3.00;;;23.30;99.90;;;;;;8372585;28;20193;-69
2022/06/25 17:44:16;;;;;;;3.07;2.77;;;23.20;99.90;;;;;;8368383;28;20209;-68
2022/06/25 17:48:17;;;;;;;4.33;3.33;;;23.10;99.90;;;;;;8362371;28;20204;-66
2022/06/25 17:52:17;;;;;;;3.73;3.10;;;23.10;18.20;;;;;;8368666;28;20178;-70
2022/06/25 17:56:18;;;;;;;4.10;3.80;;;22.90;99.90;;;;;;8376063;28;20266;-68
2022/06/25 18:00:23;;;;;;;3.93;3.53;;;22.90;99.90;;;;;;8375024;28;20188;-67
2022/06/25 18:04:24;;;;;;;3.30;3.00;;;22.80;99.90;;;;;;8372074;28;20225;-67
2022/06/25 18:08:24;;;;;;;3.47;3.00;;;22.70;1.00;;;;;;8381278;28;20245;-68
2022/06/25 18:12:26;;;;;;;4.03;2.67;;;22.60;1.00;;;;;;8370661;28;20181;-68
2022/06/25 18:16:27;;;;;;;3.50;3.20;;;22.60;99.90;;;;;;8370372;28;20196;-67
2022/06/25 18:20:28;;;;;;;3.23;2.83;;;22.60;99.90;;;;;;8372677;28;20181;-67
2022/06/25 18:24:29;;;;;;;3.03;2.70;;;22.50;99.90;;;;;;8373927;28;20182;-67
2022/06/25 18:28:30;;;;;;;2.97;2.73;;;22.50;1.00;;;;;;8369446;28;20209;-68
2022/06/25 18:32:31;;;;;;;2.83;2.50;;;22.40;1.00;;;;;;8376371;28;20181;-66
2022/06/25 18:36:31;;;;;;;3.20;2.90;;;22.20;49.30;;;;;;8365598;28;20209;-71
2022/06/25 18:40:32;;;;;;;3.37;2.93;;;22.10;99.90;;;;;;8373760;28;20240;-67
2022/06/25 18:44:33;;;;;;;6.60;3.60;;;22.00;99.90;;;;;;8366592;28;20181;-70
2022/06/25 18:48:34;;;;;;;4.43;3.83;;;21.90;1.00;;;;;;8364598;28;20181;-69
2022/06/25 18:52:35;;;;;;;7.03;5.07;;;21.60;99.90;;;;;;8372496;28;20277;-69
2022/06/25 18:56:36;;;;;;;7.73;5.63;;;21.30;1.00;;;;;;8368799;28;20176;-71
2022/06/25 19:00:36;;;;;;;7.73;6.23;;;21.00;99.90;;;;;;8371934;28;20223;-69
2022/06/25 19:04:37;;;;;;;6.40;5.80;;;20.90;99.90;;;;;;8372834;28;20282;-68
2022/06/25 19:08:38;;;;;;;7.00;5.20;;;20.80;99.90;;;;;;8366126;28;20169;-68
2022/06/25 19:12:42;;;;;;;7.07;5.10;;;20.80;99.90;;;;;;8377001;28;20177;-69
2022/06/25 19:16:43;;;;;;;4.87;4.47;;;20.80;99.90;;;;;;8371597;28;20177;-70
2022/06/25 19:20:44;;;;;;;4.60;4.20;;;20.70;99.90;;;;;;8372037;28;20244;-69
2022/06/25 19:24:46;;;;;;;4.03;3.63;;;20.70;99.90;;;;;;8369208;28;20224;-67
2022/06/25 19:28:47;;;;;;;5.07;4.20;;;20.60;99.90;;;;;;8368803;28;20293;-71
2022/06/25 19:32:48;;;;;;;5.13;4.70;;;20.60;99.90;;;;;;8376898;28;20193;-70
2022/06/25 19:36:50;;;;;;;4.97;4.57;;;20.50;99.90;;;;;;8367014;28;20207;-69
2022/06/25 19:40:51;;;;;;;5.10;4.60;;;20.50;99.90;;;;;;8365901;28;20202;-66
2022/06/25 19:44:51;;;;;;;5.00;4.50;;;20.40;99.90;;;;;;8367533;28;20209;-67
2022/06/25 19:48:53;;;;;;;3.80;3.50;;;20.30;99.90;;;;;;8370109;28;20220;-69
2022/06/25 19:52:55;;;;;;;4.40;4.07;;;20.20;99.90;;;;;;8372766;28;20185;-66
2022/06/25 19:56:56;;;;;;;4.20;3.87;;;20.10;99.90;;;;;;8378244;28;20178;-69
2022/06/25 20:00:57;;;;;;;5.30;4.30;;;20.00;99.90;;;;;;8373780;28;20205;-66
2022/06/25 20:04:58;;;;;;;9.33;6.97;;;19.90;99.90;;;;;;8373166;28;20197;-70
2022/06/25 20:08:59;;;;;;;10.10;6.63;;;19.90;99.90;;;;;;8377612;28;20189;-70
2022/06/25 20:13:00;;;;;;;7.37;5.43;;;19.80;99.90;;;;;;8370131;28;20279;-68
2022/06/25 20:17:00;;;;;;;6.10;5.40;;;19.70;99.90;;;;;;8368252;28;20262;-67
2022/06/25 20:21:02;;;;;;;5.20;4.33;;;19.60;99.90;;;;;;8370767;28;20217;-67
2022/06/25 20:25:03;;;;;;;4.57;4.17;;;19.50;99.90;;;;;;8367267;28;20272;-69
2022/06/25 20:29:04;;;;;;;5.07;4.57;;;19.40;99.90;;;;;;8368675;28;20208;-68
2022/06/25 20:33:05;;;;;;;4.83;4.40;;;19.30;99.90;;;;;;8368394;28;20504;-69
2022/06/25 20:37:06;;;;;;;4.97;4.47;;;19.10;99.90;;;;;;8364674;28;20587;-68
2022/06/25 20:41:07;;;;;;;4.30;3.87;;;19.00;99.90;;;;;;8372737;28;20207;-67
2022/06/25 20:45:08;;;;;;;4.90;4.50;;;19.00;99.90;;;;;;8369098;28;20310;-66
2022/06/25 20:49:09;;;;;;;5.00;4.60;;;18.90;99.90;;;;;;8369268;28;20182;-68
2022/06/25 20:53:10;;;;;;;6.07;5.20;;;18.80;99.90;;;;;;8373819;28;20260;-68
2022/06/25 20:57:11;;;;;;;5.70;4.70;;;18.70;99.90;;;;;;8375961;28;20241;-67
2022/06/25 21:01:12;;;;;;;5.37;4.93;;;18.70;99.90;;;;;;8371049;28;20201;-67
2022/06/25 21:09:31;;;;;;;4.97;4.57;;;18.50;99.90;;;;;;8379873;28;20255;-68
2022/06/25 21:13:33;;;;;;;5.40;4.90;;;18.40;99.90;;;;;;8379775;28;20257;-69
2022/06/25 21:17:34;;;;;;;6.90;4.97;;;18.30;99.90;;;;;;8376319;28;20239;-69
2022/06/25 21:21:34;;;;;;;5.30;4.83;;;18.10;99.90;;;;;;8373775;28;20213;-69
2022/06/25 21:25:36;;;;;;;5.93;5.43;;;18.10;99.90;;;;;;8374215;28;20184;-69
2022/06/25 21:29:38;;;;;;;5.53;5.13;;;18.10;99.90;;;;;;8375386;28;20223;-68
2022/06/25 21:33:39;;;;;;;5.33;4.93;;;18.00;99.90;;;;;;8373997;28;20184;-69
2022/06/25 21:37:39;;;;;;;5.87;5.37;;;18.00;99.90;;;;;;8375075;28;20185;-68